< < Back
Terminal Aerodrome Forecast


Current Version              Previous Versions:   1  2  3  4  5  6  7  8  9  

Terminal Aerodrome Forecast

856
FTUS42 KFFC 232335
TAFPDK
TAF
KPDK 232335Z 2400/2424 14008KT P6SM FEW007 BKN035
     FM240100 15008KT 4SM BR BKN025
     FM240300 19006KT 3SM BR OVC004
     FM241500 24010G15KT P6SM BKN015 OVC030
     FM241700 25010G20KT P6SM SCT035
     FM242300 27007KT P6SM SCT160=



Latest METAR

510
SAUS70 KWBC 240100 RRO
MTRPDK
METAR KPDK 240053Z 15005KT 10SM FEW022 BKN036 14/13 A2970 RMK AO2 SLP059
T01440133


USA.gov is the U.S. government's official web portal to all federal, state and local government web resources and services.